createdAt,value
2023-04-02T00:01:36.704Z,44.50
2023-04-02T00:04:30.084Z,44.50
2023-04-02T00:07:31.275Z,44.60
2023-04-02T00:10:30.650Z,44.60
2023-04-02T00:13:31.128Z,44.60
2023-04-02T00:16:27.248Z,44.60
2023-04-02T00:19:26.724Z,44.60
2023-04-02T00:22:21.164Z,44.60
2023-04-02T00:25:14.928Z,44.60
2023-04-02T00:28:08.130Z,44.60
2023-04-02T00:31:01.358Z,44.60
2023-04-02T00:33:56.795Z,44.60
2023-04-02T00:36:51.036Z,44.60
2023-04-02T00:39:44.214Z,44.60
2023-04-02T00:42:40.183Z,44.60
2023-04-02T00:45:38.577Z,44.60
2023-04-02T00:48:44.603Z,44.60
2023-04-02T00:51:47.406Z,44.60
2023-04-02T00:54:45.093Z,44.60
2023-04-02T00:57:38.117Z,44.60
2023-04-02T01:00:33.324Z,44.60
2023-04-02T01:03:36.507Z,44.60
2023-04-02T01:06:34.159Z,44.60
2023-04-02T01:09:56.724Z,44.60
2023-04-02T01:12:58.080Z,44.60
2023-04-02T01:15:57.436Z,44.60
2023-04-02T01:18:56.903Z,44.60
2023-04-02T01:21:56.709Z,44.60
2023-04-02T01:24:51.808Z,44.60
2023-04-02T01:27:51.638Z,44.60
2023-04-02T01:30:47.705Z,44.60
2023-04-02T01:33:42.727Z,44.60
2023-04-02T01:36:44.848Z,44.60
2023-04-02T01:39:54.340Z,44.60
2023-04-02T01:42:57.792Z,44.60
2023-04-02T01:45:52.399Z,44.60
2023-04-02T01:48:48.079Z,44.60
2023-04-02T01:51:44.002Z,44.60
2023-04-02T01:54:38.798Z,44.60
2023-04-02T01:57:32.431Z,44.60
2023-04-02T02:00:28.181Z,44.60
2023-04-02T02:03:22.823Z,44.60
2023-04-02T02:06:19.561Z,44.60
2023-04-02T02:09:18.547Z,44.60
2023-04-02T02:12:15.085Z,44.60
2023-04-02T02:15:16.467Z,44.60
2023-04-02T02:18:13.983Z,44.60
2023-04-02T02:21:10.969Z,44.60
2023-04-02T02:24:05.669Z,44.60
2023-04-02T02:27:15.337Z,44.60
2023-04-02T02:30:15.387Z,44.60
2023-04-02T02:33:16.945Z,44.60
2023-04-02T02:36:20.650Z,44.60
2023-04-02T02:39:18.710Z,44.60
2023-04-02T02:42:17.176Z,44.60
2023-04-02T02:45:16.774Z,44.60
2023-04-02T02:48:14.940Z,44.60
2023-04-02T02:51:19.228Z,44.60
2023-04-02T02:54:13.202Z,44.60
2023-04-02T02:57:10.056Z,44.60
2023-04-02T03:00:06.855Z,44.60
2023-04-02T03:03:00.324Z,44.60
2023-04-02T03:05:56.743Z,44.60
2023-04-02T03:08:58.710Z,44.60
2023-04-02T03:11:57.371Z,44.60
2023-04-02T03:14:57.986Z,44.60
2023-04-02T03:17:57.025Z,44.60
2023-04-02T03:20:52.480Z,44.60
2023-04-02T03:23:52.197Z,44.60
2023-04-02T03:26:53.249Z,44.60
2023-04-02T03:29:52.629Z,44.60
2023-04-02T03:32:49.523Z,44.60
2023-04-02T03:35:47.619Z,44.60
2023-04-02T03:38:45.514Z,44.70
2023-04-02T03:41:45.001Z,44.60
2023-04-02T03:44:45.498Z,44.60
2023-04-02T03:47:43.451Z,44.60
2023-04-02T03:50:44.057Z,44.60
2023-04-02T03:53:36.918Z,44.60
2023-04-02T03:56:39.507Z,44.60
2023-04-02T03:59:40.833Z,45.30
2023-04-02T04:02:43.694Z,44.60
2023-04-02T04:05:40.660Z,44.60
2023-04-02T04:08:42.404Z,44.60
2023-04-02T04:11:38.536Z,44.60
2023-04-02T04:14:34.790Z,44.60
2023-04-02T04:17:38.424Z,44.60
2023-04-02T04:20:37.140Z,44.60
2023-04-02T04:23:32.706Z,44.60
2023-04-02T04:26:34.805Z,44.60
2023-04-02T04:29:38.025Z,44.60
2023-04-02T04:32:39.320Z,44.70
2023-04-02T04:35:38.868Z,44.60
2023-04-02T04:38:39.201Z,44.70
2023-04-02T04:41:36.085Z,44.70
2023-04-02T04:44:40.534Z,44.60
2023-04-02T04:47:39.379Z,44.70
2023-04-02T04:50:35.644Z,44.60
2023-04-02T04:53:31.142Z,44.70
2023-04-02T04:56:27.397Z,44.70
2023-04-02T04:59:24.756Z,44.70
2023-04-02T05:02:22.391Z,44.60
2023-04-02T05:05:24.875Z,45.30
2023-04-02T05:08:22.117Z,44.70
2023-04-02T05:11:21.878Z,44.60
2023-04-02T05:14:23.451Z,44.70
2023-04-02T05:17:22.674Z,44.70
2023-04-02T05:20:23.643Z,44.60
2023-04-02T05:23:21.033Z,44.60
2023-04-02T05:26:19.291Z,44.70
2023-04-02T05:29:18.129Z,44.70
2023-04-02T05:32:18.361Z,44.70
2023-04-02T05:35:18.322Z,44.70
2023-04-02T05:38:21.928Z,44.70
2023-04-02T05:41:23.621Z,44.70
2023-04-02T05:44:22.812Z,44.70
2023-04-02T05:47:23.082Z,44.70
2023-04-02T05:50:26.458Z,44.70
2023-04-02T05:53:26.335Z,44.70
2023-04-02T05:56:22.005Z,44.70
2023-04-02T05:59:19.862Z,44.60
2023-04-02T06:02:22.391Z,44.60
2023-04-02T06:05:18.991Z,44.60
2023-04-02T06:08:15.936Z,44.70
2023-04-02T06:11:12.797Z,44.70
2023-04-02T06:14:06.546Z,44.60
2023-04-02T06:17:00.642Z,44.60
2023-04-02T06:19:57.926Z,44.70
2023-04-02T06:22:54.153Z,44.60
2023-04-02T06:25:50.665Z,44.60
2023-04-02T06:28:48.687Z,44.70
2023-04-02T06:31:48.320Z,44.60
2023-04-02T06:34:43.498Z,44.60
2023-04-02T06:37:39.229Z,44.70
2023-04-02T06:40:42.611Z,44.60
2023-04-02T06:43:39.782Z,44.60
2023-04-02T06:46:39.615Z,44.60
2023-04-02T06:49:39.835Z,44.70
2023-04-02T06:52:36.962Z,44.60
2023-04-02T06:55:34.893Z,44.70
2023-04-02T06:58:27.905Z,44.60
2023-04-02T07:01:25.357Z,44.60
2023-04-02T07:04:20.888Z,44.60
2023-04-02T07:07:14.289Z,44.60
2023-04-02T07:10:09.045Z,44.60
2023-04-02T07:13:02.852Z,44.60
2023-04-02T07:15:56.517Z,44.60
2023-04-02T07:18:50.733Z,44.60
2023-04-02T07:21:45.470Z,44.60
2023-04-02T07:24:38.170Z,44.60
2023-04-02T07:27:32.084Z,44.60
2023-04-02T07:30:25.224Z,44.60
2023-04-02T07:33:20.439Z,44.60
2023-04-02T07:36:18.003Z,44.60
2023-04-02T07:39:12.748Z,44.60
2023-04-02T07:42:06.104Z,44.60
2023-04-02T07:44:59.580Z,44.60
2023-04-02T07:47:53.361Z,44.60
2023-04-02T07:50:46.115Z,44.60
2023-04-02T07:53:39.186Z,44.60
2023-04-02T07:56:33.561Z,44.60
2023-04-02T07:59:26.174Z,44.60
2023-04-02T08:02:23.461Z,44.60
2023-04-02T08:05:16.487Z,44.60
2023-04-02T08:08:10.396Z,44.60
2023-04-02T08:11:03.459Z,44.60
2023-04-02T08:13:57.743Z,44.60
2023-04-02T08:16:53.656Z,44.60
2023-04-02T08:19:54.629Z,44.60
2023-04-02T08:22:49.443Z,44.60
2023-04-02T08:25:42.482Z,44.60
2023-04-02T08:28:35.961Z,44.60
2023-04-02T08:31:31.083Z,44.60
2023-04-02T08:34:24.425Z,44.60
2023-04-02T08:37:17.055Z,44.60
2023-04-02T08:40:22.060Z,44.60
2023-04-02T08:43:37.500Z,44.60
2023-04-02T08:46:38.056Z,44.60
2023-04-02T08:49:33.938Z,44.60
2023-04-02T08:52:29.476Z,44.60
2023-04-02T08:55:42.736Z,44.90
2023-04-02T08:58:43.022Z,44.60
2023-04-02T09:01:48.552Z,44.60
2023-04-02T09:04:42.033Z,44.60
2023-04-02T09:07:35.745Z,44.60
2023-04-02T09:10:37.815Z,44.60
2023-04-02T09:13:34.075Z,44.60
2023-04-02T09:16:41.794Z,44.60
2023-04-02T09:19:38.916Z,44.60
2023-04-02T09:22:34.889Z,44.60
2023-04-02T09:25:31.420Z,44.60
2023-04-02T09:28:25.541Z,44.60
2023-04-02T09:31:23.199Z,44.60
2023-04-02T09:34:30.805Z,44.50
2023-04-02T09:37:25.466Z,44.50
2023-04-02T09:40:31.875Z,44.50
2023-04-02T09:43:27.191Z,44.50
2023-04-02T09:46:24.632Z,44.60
2023-04-02T09:49:19.602Z,44.60
2023-04-02T09:52:27.000Z,44.50
2023-04-02T09:55:24.294Z,44.60
2023-04-02T09:58:18.475Z,44.50
2023-04-02T10:01:28.848Z,44.50
2023-04-02T10:04:36.997Z,44.60
2023-04-02T10:07:38.082Z,44.50
2023-04-02T10:10:36.117Z,44.50
2023-04-02T10:13:31.894Z,44.50
2023-04-02T10:16:32.837Z,44.50
2023-04-02T10:19:30.689Z,44.50
2023-04-02T10:22:24.578Z,44.50
2023-04-02T10:25:22.047Z,44.50
2023-04-02T10:28:31.326Z,44.50
2023-04-02T10:31:28.056Z,44.50
2023-04-02T10:34:25.976Z,44.50
2023-04-02T10:37:54.332Z,44.50
2023-04-02T10:40:56.482Z,44.50
2023-04-02T10:44:18.847Z,44.50
2023-04-02T10:47:26.633Z,44.50
2023-04-02T10:50:31.209Z,44.50
2023-04-02T10:53:31.766Z,44.50
2023-04-02T10:56:29.755Z,44.50
2023-04-02T10:59:27.082Z,44.50
2023-04-02T11:02:32.290Z,44.50
2023-04-02T11:05:37.095Z,44.50
2023-04-02T11:08:40.035Z,44.50
2023-04-02T11:11:39.601Z,44.50
2023-04-02T11:14:33.602Z,44.50
2023-04-02T11:17:26.613Z,44.50
2023-04-02T11:20:59.433Z,44.50
2023-04-02T11:23:59.592Z,44.50
2023-04-02T11:26:54.531Z,44.50
2023-04-02T11:29:49.690Z,44.50
2023-04-02T11:32:44.071Z,45.10
2023-04-02T11:35:40.730Z,44.50
2023-04-02T11:38:52.909Z,44.50
2023-04-02T11:42:06.464Z,44.50
2023-04-02T11:45:20.633Z,44.50
2023-04-02T11:48:29.203Z,44.50
2023-04-02T11:51:56.505Z,44.50
2023-04-02T11:55:00.569Z,44.50
2023-04-02T11:58:05.529Z,44.50
2023-04-02T12:01:24.035Z,44.50
2023-04-02T12:04:53.970Z,44.50
2023-04-02T12:08:11.012Z,44.50
2023-04-02T12:11:05.126Z,44.50
2023-04-02T12:14:00.446Z,44.50
2023-04-02T12:16:53.664Z,44.50
2023-04-02T12:19:55.059Z,44.50
2023-04-02T12:22:50.664Z,44.50
2023-04-02T12:25:47.941Z,44.50
2023-04-02T12:28:42.311Z,44.50
2023-04-02T12:31:35.533Z,44.50
2023-04-02T12:34:31.418Z,44.50
2023-04-02T12:37:26.946Z,44.40
2023-04-02T12:40:20.953Z,44.50
2023-04-02T12:43:25.844Z,44.50
2023-04-02T12:46:19.769Z,44.50
2023-04-02T12:49:26.256Z,44.40
2023-04-02T12:52:21.778Z,44.50
2023-04-02T12:55:19.584Z,44.40
2023-04-02T12:58:28.092Z,44.40
2023-04-02T13:01:23.699Z,44.40
2023-04-02T13:04:16.493Z,44.50
2023-04-02T13:07:18.358Z,44.50
2023-04-02T13:10:25.394Z,44.40
2023-04-02T13:13:24.954Z,44.80
2023-04-02T13:16:33.688Z,44.50
2023-04-02T13:19:31.668Z,44.50
2023-04-02T13:22:32.357Z,44.50
2023-04-02T13:25:30.470Z,44.40
2023-04-02T13:28:24.072Z,44.40
2023-04-02T13:31:17.749Z,44.40
2023-04-02T13:34:12.811Z,44.40
2023-04-02T13:37:06.064Z,44.40
2023-04-02T13:39:59.374Z,44.40
2023-04-02T13:42:52.676Z,44.40
2023-04-02T13:45:49.524Z,44.40
2023-04-02T13:48:42.648Z,44.40
2023-04-02T13:51:39.550Z,44.40
2023-04-02T13:54:35.045Z,44.40
2023-04-02T13:57:28.407Z,44.40
2023-04-02T14:00:21.723Z,44.40
2023-04-02T14:03:16.823Z,44.40
2023-04-02T14:06:16.209Z,44.40
2023-04-02T14:09:18.284Z,44.40
2023-04-02T14:12:21.729Z,44.40
2023-04-02T14:15:25.026Z,44.40
2023-04-02T14:18:40.785Z,44.40
2023-04-02T14:21:46.684Z,44.40
2023-04-02T14:24:49.858Z,44.40
2023-04-02T14:27:50.633Z,44.40
2023-04-02T14:30:52.132Z,44.40
2023-04-02T14:33:54.872Z,44.40
2023-04-02T14:36:56.537Z,44.70
2023-04-02T14:40:01.745Z,44.40
2023-04-02T14:43:01.738Z,44.40
2023-04-02T14:45:59.689Z,44.40
2023-04-02T14:48:56.593Z,44.40
2023-04-02T14:51:52.752Z,44.40
2023-04-02T14:54:51.943Z,44.40
2023-04-02T14:57:52.356Z,44.40
2023-04-02T15:00:52.545Z,44.40
2023-04-02T15:03:50.779Z,44.40
2023-04-02T15:06:48.495Z,44.40
2023-04-02T15:09:46.660Z,44.30
2023-04-02T15:12:41.831Z,44.40
2023-04-02T15:15:42.465Z,44.30
2023-04-02T15:18:38.253Z,44.30
2023-04-02T15:21:57.607Z,44.40
2023-04-02T15:25:04.023Z,44.30
2023-04-02T15:28:07.194Z,44.30
2023-04-02T15:31:07.257Z,44.30
2023-04-02T15:34:14.989Z,44.30
2023-04-02T15:37:24.060Z,44.30
2023-04-02T15:40:29.241Z,44.30
2023-04-02T15:43:27.647Z,44.30
2023-04-02T15:46:28.607Z,44.40
2023-04-02T15:49:38.724Z,44.30
2023-04-02T15:52:37.272Z,44.30
2023-04-02T15:55:39.198Z,44.30
2023-04-02T15:58:45.514Z,44.30
2023-04-02T16:01:49.404Z,44.30
2023-04-02T16:04:50.640Z,44.30
2023-04-02T16:07:59.005Z,44.30
2023-04-02T16:10:52.769Z,44.30
2023-04-02T16:13:46.981Z,44.30
2023-04-02T16:16:43.182Z,44.30
2023-04-02T16:19:41.931Z,44.30
2023-04-02T16:22:38.124Z,44.30
2023-04-02T16:25:40.067Z,44.30
2023-04-02T16:28:41.092Z,44.30
2023-04-02T16:31:45.443Z,44.30
2023-04-02T16:34:50.070Z,44.60
2023-04-02T16:37:48.919Z,44.30
2023-04-02T16:40:57.160Z,44.30
2023-04-02T16:44:08.816Z,44.30
2023-04-02T16:47:19.320Z,44.30
2023-04-02T16:50:20.941Z,44.30
2023-04-02T16:53:23.735Z,44.30
2023-04-02T16:56:35.653Z,44.30
2023-04-02T16:59:36.289Z,44.30
2023-04-02T17:02:43.764Z,44.30
2023-04-02T17:05:54.274Z,44.30
2023-04-02T17:08:55.297Z,44.30
2023-04-02T17:11:51.512Z,44.30
2023-04-02T17:14:51.416Z,44.30
2023-04-02T17:17:45.783Z,44.30
2023-04-02T17:20:39.353Z,44.30
2023-04-02T17:23:40.554Z,44.30
2023-04-02T17:26:40.162Z,44.30
2023-04-02T17:29:39.030Z,44.30
2023-04-02T17:32:34.529Z,44.30
2023-04-02T17:35:34.225Z,44.20
2023-04-02T17:38:35.238Z,44.30
2023-04-02T17:41:36.072Z,44.30
2023-04-02T17:44:48.658Z,44.30
2023-04-02T17:47:52.671Z,44.30
2023-04-02T17:51:03.989Z,44.30
2023-04-02T17:54:11.860Z,44.30
2023-04-02T17:57:19.713Z,44.30
2023-04-02T18:00:23.410Z,44.30
2023-04-02T18:03:37.378Z,44.30
2023-04-02T18:06:40.448Z,44.30
2023-04-02T18:09:42.470Z,44.30
2023-04-02T18:12:51.438Z,44.30
2023-04-02T18:15:55.475Z,44.30
2023-04-02T18:19:13.227Z,44.30
2023-04-02T18:22:14.584Z,44.30
2023-04-02T18:25:26.055Z,44.30
2023-04-02T18:28:31.507Z,44.30
2023-04-02T18:31:32.893Z,44.30
2023-04-02T18:34:55.104Z,44.20
2023-04-02T18:38:01.894Z,44.30
2023-04-02T18:41:05.008Z,44.30
2023-04-02T18:44:09.981Z,44.90
2023-04-02T18:47:09.885Z,44.30
2023-04-02T18:50:15.740Z,44.30
2023-04-02T18:53:14.560Z,44.30
2023-04-02T18:56:12.331Z,44.30
2023-04-02T18:59:20.690Z,44.30
2023-04-02T19:02:41.101Z,44.90
2023-04-02T19:05:44.434Z,44.30
2023-04-02T19:08:42.991Z,44.30
2023-04-02T19:11:35.961Z,44.30
2023-04-02T19:14:29.957Z,44.30
2023-04-02T19:17:31.969Z,44.30
2023-04-02T19:20:34.179Z,44.30
2023-04-02T19:23:44.853Z,44.30
2023-04-02T19:26:45.036Z,44.30
2023-04-02T19:29:50.634Z,44.30
2023-04-02T19:32:51.568Z,44.30
2023-04-02T19:35:50.069Z,44.30
2023-04-02T19:38:56.199Z,44.30
2023-04-02T19:41:53.050Z,44.30
2023-04-02T19:44:47.686Z,44.30
2023-04-02T19:47:40.826Z,44.30
2023-04-02T19:50:33.644Z,44.30
2023-04-02T19:53:26.881Z,44.30
2023-04-02T19:56:21.901Z,44.30
2023-04-02T19:59:18.135Z,44.20
2023-04-02T20:02:12.449Z,44.30
2023-04-02T20:05:07.087Z,44.30
2023-04-02T20:07:59.890Z,44.30
2023-04-02T20:10:52.845Z,44.30
2023-04-02T20:13:47.749Z,44.30
2023-04-02T20:16:40.701Z,44.20
2023-04-02T20:19:33.644Z,44.30
2023-04-02T20:22:27.090Z,44.30
2023-04-02T20:25:19.746Z,44.30
2023-04-02T20:28:13.178Z,44.30
2023-04-02T20:31:10.213Z,44.20
2023-04-02T20:34:05.311Z,44.30
2023-04-02T20:36:58.987Z,44.30
2023-04-02T20:39:52.028Z,44.30
2023-04-02T20:42:45.091Z,44.30
2023-04-02T20:45:38.707Z,44.30
2023-04-02T20:48:34.658Z,44.30
2023-04-02T20:51:27.733Z,44.20
2023-04-02T20:54:20.802Z,44.30
2023-04-02T20:57:14.640Z,44.30
2023-04-02T21:00:10.242Z,44.20
2023-04-02T21:03:04.174Z,44.20
2023-04-02T21:05:59.391Z,44.20
2023-04-02T21:08:53.471Z,44.20
2023-04-02T21:11:46.789Z,44.20
2023-04-02T21:14:40.271Z,44.20
2023-04-02T21:17:33.990Z,44.20
2023-04-02T21:20:26.966Z,44.20
2023-04-02T21:23:20.990Z,44.20
2023-04-02T21:26:15.753Z,44.20
2023-04-02T21:29:08.953Z,44.20
2023-04-02T21:32:05.728Z,44.20
2023-04-02T21:35:10.903Z,44.20
2023-04-02T21:38:04.165Z,44.20
2023-04-02T21:40:58.296Z,44.20
2023-04-02T21:43:52.196Z,44.30
2023-04-02T21:46:45.731Z,44.20
2023-04-02T21:49:38.780Z,44.20
2023-04-02T21:52:32.326Z,44.20
2023-04-02T21:55:26.154Z,44.20
2023-04-02T21:58:20.208Z,44.20
2023-04-02T22:01:26.011Z,44.20
2023-04-02T22:04:22.993Z,44.20
2023-04-02T22:07:15.845Z,44.20
2023-04-02T22:10:09.417Z,44.20
2023-04-02T22:13:02.698Z,44.10
2023-04-02T22:16:04.953Z,44.20
2023-04-02T22:19:01.787Z,44.30
2023-04-02T22:21:54.666Z,44.20
2023-04-02T22:24:47.691Z,44.20
2023-04-02T22:27:41.038Z,44.20
2023-04-02T22:30:35.673Z,44.20
2023-04-02T22:33:32.230Z,44.20
2023-04-02T22:36:27.153Z,44.20
2023-04-02T22:39:19.851Z,44.20
2023-04-02T22:42:12.605Z,44.20
2023-04-02T22:45:07.980Z,44.20
2023-04-02T22:48:00.821Z,44.20
2023-04-02T22:50:55.368Z,44.20
2023-04-02T22:53:49.695Z,44.20
2023-04-02T22:56:42.698Z,44.10
2023-04-02T22:59:35.754Z,44.20
2023-04-02T23:02:28.817Z,44.20
2023-04-02T23:05:25.353Z,44.20
2023-04-02T23:08:20.233Z,44.20
2023-04-02T23:11:15.376Z,44.10
2023-04-02T23:14:09.118Z,44.10
2023-04-02T23:17:02.275Z,44.10
2023-04-02T23:19:54.864Z,44.20
2023-04-02T23:22:48.046Z,44.10
2023-04-02T23:25:42.145Z,44.10
2023-04-02T23:28:36.104Z,44.10
2023-04-02T23:31:29.450Z,44.10
2023-04-02T23:34:23.122Z,44.10
2023-04-02T23:37:16.408Z,44.10
2023-04-02T23:40:11.101Z,44.10
2023-04-02T23:43:05.576Z,44.10
2023-04-02T23:45:59.168Z,44.10
2023-04-02T23:48:52.197Z,44.20
2023-04-02T23:51:45.135Z,44.20
2023-04-02T23:54:37.610Z,44.20
2023-04-02T23:57:31.076Z,44.20
